createdAt,value
2018-10-07T00:00:32.587Z,68.89
2018-10-07T00:03:00.998Z,69.14
2018-10-07T00:05:29.429Z,68.71
2018-10-07T00:07:57.826Z,68.96
2018-10-07T00:10:26.282Z,68.14
2018-10-07T00:12:54.673Z,68.43
2018-10-07T00:15:23.159Z,68.59
2018-10-07T00:17:51.533Z,68.51
2018-10-07T00:20:23.272Z,68.39
2018-10-07T00:22:51.703Z,69.22
2018-10-07T00:25:20.172Z,68.17
2018-10-07T00:27:48.626Z,69.28
2018-10-07T00:30:17.031Z,68.67
2018-10-07T00:32:45.543Z,68.05
2018-10-07T00:35:13.981Z,68.02
2018-10-07T00:37:42.487Z,67.67
2018-10-07T00:40:10.917Z,68.91
2018-10-07T00:42:39.974Z,68.80
2018-10-07T00:45:08.499Z,68.55
2018-10-07T00:47:36.986Z,68.14
2018-10-07T00:50:05.461Z,69.10
2018-10-07T00:52:33.973Z,68.82
2018-10-07T00:55:02.562Z,68.21
2018-10-07T00:57:31.057Z,69.24
2018-10-07T00:59:59.539Z,68.38
2018-10-07T01:02:28.038Z,67.64
2018-10-07T01:04:56.459Z,67.30
2018-10-07T01:07:24.935Z,67.16
2018-10-07T01:09:53.333Z,67.25
2018-10-07T01:12:21.801Z,67.21
2018-10-07T01:14:50.235Z,68.04
2018-10-07T01:17:18.722Z,68.51
2018-10-07T01:19:47.197Z,67.33
2018-10-07T01:22:15.661Z,67.35
2018-10-07T01:24:44.065Z,66.91
2018-10-07T01:27:12.606Z,66.98
2018-10-07T01:29:41.033Z,67.19
2018-10-07T01:32:09.562Z,66.40
2018-10-07T01:34:38.041Z,66.77
2018-10-07T01:37:06.489Z,67.23
2018-10-07T01:39:34.970Z,66.93
2018-10-07T01:42:03.722Z,66.76
2018-10-07T01:44:32.153Z,67.08
2018-10-07T01:47:00.546Z,66.65
2018-10-07T01:49:28.985Z,66.79
2018-10-07T01:51:57.385Z,67.37
2018-10-07T01:54:25.834Z,67.15
2018-10-07T01:56:54.247Z,67.21
2018-10-07T01:59:22.742Z,68.46
2018-10-07T02:01:51.126Z,68.28
2018-10-07T02:04:19.557Z,67.66
2018-10-07T02:06:47.968Z,67.21
2018-10-07T02:09:16.459Z,67.84
2018-10-07T02:11:44.891Z,67.79
2018-10-07T02:14:13.334Z,66.91
2018-10-07T02:16:41.798Z,67.33
2018-10-07T02:19:10.217Z,66.80
2018-10-07T02:21:38.678Z,66.65
2018-10-07T02:24:07.341Z,66.88
2018-10-07T02:26:35.782Z,67.31
2018-10-07T02:29:04.214Z,66.51
2018-10-07T02:31:32.716Z,66.70
2018-10-07T02:34:01.145Z,67.03
2018-10-07T02:36:29.590Z,66.37
2018-10-07T02:38:58.007Z,67.08
2018-10-07T02:41:26.470Z,66.83
2018-10-07T02:43:54.889Z,66.96
2018-10-07T02:46:23.365Z,67.63
2018-10-07T02:48:51.830Z,67.27
2018-10-07T02:51:20.362Z,67.59
2018-10-07T02:53:48.802Z,67.98
2018-10-07T02:56:17.305Z,68.60
2018-10-07T02:58:45.742Z,67.50
2018-10-07T03:01:14.191Z,68.14
2018-10-07T03:03:42.626Z,67.75
2018-10-07T03:06:11.086Z,67.30
2018-10-07T03:08:39.497Z,67.46
2018-10-07T03:11:07.994Z,67.31
2018-10-07T03:13:36.482Z,66.95
2018-10-07T03:16:04.909Z,67.07
2018-10-07T03:18:33.342Z,67.35
2018-10-07T03:21:01.784Z,66.68
2018-10-07T03:23:30.281Z,67.55
2018-10-07T03:25:58.698Z,67.11
2018-10-07T03:28:27.133Z,67.78
2018-10-07T03:30:55.579Z,67.28
2018-10-07T03:33:24.011Z,67.91
2018-10-07T03:35:52.442Z,67.01
2018-10-07T03:38:20.866Z,67.02
2018-10-07T03:40:49.263Z,67.04
2018-10-07T03:43:17.704Z,66.98
2018-10-07T03:45:46.473Z,66.98
2018-10-07T03:48:14.898Z,66.62
2018-10-07T03:50:43.285Z,67.05
2018-10-07T03:53:11.739Z,66.85
2018-10-07T03:55:40.255Z,67.39
2018-10-07T03:58:08.870Z,67.59
2018-10-07T04:00:37.289Z,67.29
2018-10-07T04:03:05.745Z,66.71
2018-10-07T04:05:34.190Z,67.39
2018-10-07T04:08:02.970Z,66.86
2018-10-07T04:10:31.413Z,66.85
2018-10-07T04:12:59.813Z,66.98
2018-10-07T04:15:28.273Z,67.58
2018-10-07T04:17:56.668Z,66.78
2018-10-07T04:20:25.102Z,66.87
2018-10-07T04:22:53.499Z,66.52
2018-10-07T04:25:21.944Z,66.77
2018-10-07T04:27:50.365Z,66.98
2018-10-07T04:30:18.809Z,67.57
2018-10-07T04:32:47.213Z,66.54
2018-10-07T04:35:15.658Z,66.19
2018-10-07T04:37:44.051Z,67.45
2018-10-07T04:40:12.494Z,67.53
2018-10-07T04:42:40.933Z,67.58
2018-10-07T04:45:09.369Z,68.03
2018-10-07T04:47:37.778Z,67.73
2018-10-07T04:50:06.378Z,67.36
2018-10-07T04:52:34.846Z,67.90
2018-10-07T04:55:03.625Z,67.17
2018-10-07T04:57:32.050Z,67.30
2018-10-07T05:00:00.458Z,66.45
2018-10-07T05:02:28.906Z,67.04
2018-10-07T05:04:57.393Z,66.41
2018-10-07T05:07:25.897Z,66.84
2018-10-07T05:10:05.518Z,66.99
2018-10-07T05:12:34.098Z,66.61
2018-10-07T05:15:02.943Z,66.36
2018-10-07T05:17:32.685Z,66.80
2018-10-07T05:20:01.390Z,67.12
2018-10-07T05:22:30.330Z,66.98
2018-10-07T05:24:59.170Z,67.31
2018-10-07T05:27:28.023Z,67.15
2018-10-07T05:29:56.852Z,67.55
2018-10-07T05:32:25.634Z,66.07
2018-10-07T05:34:54.382Z,66.99
2018-10-07T05:37:23.161Z,66.55
2018-10-07T05:39:51.935Z,66.37
2018-10-07T05:42:20.439Z,66.30
2018-10-07T05:44:49.373Z,66.13
2018-10-07T05:47:18.095Z,66.33
2018-10-07T05:49:47.027Z,66.51
2018-10-07T05:52:15.592Z,65.96
2018-10-07T05:54:44.460Z,66.66
2018-10-07T05:57:13.096Z,65.93
2018-10-07T05:59:41.898Z,65.62
2018-10-07T06:02:10.601Z,65.85
2018-10-07T06:04:59.332Z,65.83
2018-10-07T06:07:29.278Z,66.05
2018-10-07T06:09:58.155Z,65.29
2018-10-07T06:12:27.146Z,66.35
2018-10-07T06:15:06.924Z,65.26
2018-10-07T06:17:35.434Z,65.77
2018-10-07T06:20:04.043Z,66.11
2018-10-07T06:22:32.571Z,65.77
2018-10-07T06:25:01.131Z,65.90
2018-10-07T06:27:30.394Z,65.86
2018-10-07T06:29:59.042Z,66.13
2018-10-07T06:32:27.614Z,65.49
2018-10-07T06:34:56.315Z,66.47
2018-10-07T06:37:24.789Z,66.58
2018-10-07T06:39:54.215Z,65.94
2018-10-07T06:42:22.771Z,65.71
2018-10-07T06:44:51.331Z,66.31
2018-10-07T06:47:19.869Z,65.65
2018-10-07T06:49:48.298Z,65.40
2018-10-07T06:52:16.767Z,66.00
2018-10-07T06:54:45.238Z,65.15
2018-10-07T06:57:13.672Z,64.87
2018-10-07T06:59:42.216Z,65.27
2018-10-07T07:02:10.651Z,64.81
2018-10-07T07:04:39.230Z,64.92
2018-10-07T07:07:07.811Z,64.70
2018-10-07T07:09:36.241Z,64.68
2018-10-07T07:12:04.677Z,65.36
2018-10-07T07:14:33.105Z,64.41
2018-10-07T07:17:02.004Z,64.13
2018-10-07T07:19:30.397Z,63.95
2018-10-07T07:21:58.823Z,64.79
2018-10-07T07:24:27.257Z,63.96
2018-10-07T07:26:55.713Z,64.08
2018-10-07T07:29:24.121Z,64.11
2018-10-07T07:31:52.628Z,63.53
2018-10-07T07:34:21.043Z,63.12
2018-10-07T07:36:49.567Z,63.33
2018-10-07T07:39:17.914Z,63.40
2018-10-07T07:41:46.350Z,64.06
2018-10-07T07:44:14.768Z,63.47
2018-10-07T07:46:43.188Z,63.68
2018-10-07T07:49:11.669Z,62.89
2018-10-07T07:51:40.090Z,63.15
2018-10-07T07:54:08.477Z,62.56
2018-10-07T07:56:36.922Z,61.40
2018-10-07T07:59:05.730Z,61.74
2018-10-07T08:01:34.157Z,60.99
2018-10-07T08:04:02.927Z,60.68
2018-10-07T08:06:31.383Z,60.34
2018-10-07T08:08:59.838Z,60.83
2018-10-07T08:11:28.285Z,60.59
2018-10-07T08:13:56.715Z,60.29
2018-10-07T08:16:25.175Z,60.01
2018-10-07T08:18:54.309Z,60.25
2018-10-07T08:21:22.701Z,60.56
2018-10-07T08:23:51.210Z,61.37
2018-10-07T08:26:19.565Z,61.17
2018-10-07T08:28:48.014Z,61.30
2018-10-07T08:31:16.434Z,60.90
2018-10-07T08:33:44.850Z,59.96
2018-10-07T08:36:13.243Z,60.33
2018-10-07T08:38:41.713Z,59.97
2018-10-07T08:41:10.121Z,60.25
2018-10-07T08:43:38.565Z,60.30
2018-10-07T08:46:06.998Z,60.19
2018-10-07T08:48:35.414Z,60.07
2018-10-07T08:51:03.849Z,60.89
2018-10-07T08:53:32.298Z,60.12
2018-10-07T08:56:00.721Z,59.75
2018-10-07T08:58:29.129Z,59.63
2018-10-07T09:00:57.598Z,60.09
2018-10-07T09:03:25.991Z,60.67
2018-10-07T09:05:54.425Z,60.28
2018-10-07T09:08:22.814Z,60.01
2018-10-07T09:10:51.294Z,59.52
2018-10-07T09:13:20.202Z,58.73
2018-10-07T09:15:48.682Z,59.04
2018-10-07T09:18:17.074Z,58.64
2018-10-07T09:20:45.576Z,58.51
2018-10-07T09:23:13.973Z,57.48
2018-10-07T09:25:42.505Z,57.76
2018-10-07T09:28:10.955Z,57.60
2018-10-07T09:30:39.423Z,58.28
2018-10-07T09:33:07.822Z,58.04
2018-10-07T09:35:36.252Z,58.51
2018-10-07T09:38:04.673Z,58.23
2018-10-07T09:40:33.141Z,57.83
2018-10-07T09:43:01.797Z,57.83
2018-10-07T09:45:30.293Z,57.75
2018-10-07T09:47:58.770Z,57.81
2018-10-07T09:50:27.173Z,58.10
2018-10-07T09:52:55.598Z,57.97
2018-10-07T09:55:24.023Z,57.46
2018-10-07T09:57:52.549Z,57.51
2018-10-07T10:00:51.865Z,56.96
2018-10-07T10:03:20.258Z,56.44
2018-10-07T10:05:48.678Z,55.69
2018-10-07T10:08:17.120Z,55.57
2018-10-07T10:10:45.537Z,55.76
2018-10-07T10:13:14.373Z,54.98
2018-10-07T10:15:42.806Z,54.36
2018-10-07T10:18:16.573Z,54.45
2018-10-07T10:20:56.970Z,54.53
2018-10-07T10:23:36.358Z,54.80
2018-10-07T10:26:11.962Z,54.72
2018-10-07T10:28:48.618Z,54.84
2018-10-07T10:31:26.217Z,54.64
2018-10-07T10:35:09.846Z,53.92
2018-10-07T10:37:49.325Z,54.03
2018-10-07T10:40:31.214Z,53.89
2018-10-07T10:43:43.717Z,53.70
2018-10-07T10:46:21.809Z,53.54
2018-10-07T10:49:26.195Z,53.23
2018-10-07T10:52:29.573Z,53.56
2018-10-07T10:55:14.156Z,53.43
2018-10-07T10:57:44.411Z,53.17
2018-10-07T11:00:16.574Z,53.26
2018-10-07T11:04:58.722Z,53.50
2018-10-07T11:07:51.614Z,53.42
2018-10-07T11:10:26.859Z,53.10
2018-10-07T11:13:05.039Z,53.25
2018-10-07T11:15:38.545Z,53.27
2018-10-07T11:18:19.965Z,52.46
2018-10-07T11:23:02.378Z,52.44
2018-10-07T11:26:56.386Z,52.24
2018-10-07T11:29:52.470Z,51.94
2018-10-07T11:32:33.390Z,52.12
2018-10-07T11:35:16.186Z,52.12
2018-10-07T11:38:04.450Z,52.31
2018-10-07T11:40:44.193Z,51.86
2018-10-07T11:43:20.410Z,51.62
2018-10-07T11:47:02.060Z,51.39
2018-10-07T11:49:45.226Z,50.33
2018-10-07T11:52:50.928Z,50.88
2018-10-07T11:55:19.361Z,49.42
2018-10-07T11:57:47.778Z,50.34
2018-10-07T12:00:16.369Z,49.99
2018-10-07T12:02:44.831Z,50.08
2018-10-07T12:05:13.233Z,50.81
2018-10-07T12:07:42.214Z,50.61
2018-10-07T12:10:10.724Z,50.64
2018-10-07T12:12:39.137Z,51.41
2018-10-07T12:15:10.966Z,50.51
2018-10-07T12:17:39.959Z,50.23
2018-10-07T12:20:08.405Z,50.13
2018-10-07T12:22:36.859Z,50.34
2018-10-07T12:25:05.555Z,50.50
2018-10-07T12:27:33.977Z,50.58
2018-10-07T12:30:02.397Z,51.19
2018-10-07T12:32:30.849Z,51.73
2018-10-07T12:34:59.267Z,51.18
2018-10-07T12:37:27.778Z,51.75
2018-10-07T12:39:56.198Z,50.91
2018-10-07T12:42:24.619Z,51.48
2018-10-07T12:44:53.066Z,50.66
2018-10-07T12:47:21.560Z,51.19
2018-10-07T12:49:49.958Z,51.52
2018-10-07T12:52:18.382Z,51.31
2018-10-07T12:54:46.810Z,51.68
2018-10-07T12:57:15.198Z,51.86
2018-10-07T12:59:43.625Z,50.84
2018-10-07T13:02:12.056Z,50.76
2018-10-07T13:04:40.485Z,51.24
2018-10-07T13:07:08.914Z,51.63
2018-10-07T13:09:38.640Z,51.97
2018-10-07T13:12:07.053Z,51.69
2018-10-07T13:14:35.554Z,50.06
2018-10-07T13:17:04.026Z,50.13
2018-10-07T13:19:32.466Z,50.62
2018-10-07T13:22:00.901Z,49.77
2018-10-07T13:24:29.337Z,49.63
2018-10-07T13:26:57.757Z,49.58
2018-10-07T13:29:26.206Z,49.70
2018-10-07T13:31:54.614Z,48.89
2018-10-07T13:34:23.134Z,48.56
2018-10-07T13:36:51.554Z,48.80
2018-10-07T13:39:19.986Z,48.19
2018-10-07T13:41:48.389Z,49.21
2018-10-07T13:44:16.839Z,49.20
2018-10-07T13:46:45.241Z,48.45
2018-10-07T13:49:13.641Z,48.95
2018-10-07T13:51:42.122Z,48.50
2018-10-07T13:54:10.534Z,49.03
2018-10-07T13:56:39.042Z,49.35
2018-10-07T13:59:07.519Z,50.96
2018-10-07T14:01:35.937Z,50.95
2018-10-07T14:04:04.342Z,51.93
2018-10-07T14:06:32.787Z,51.87
2018-10-07T14:09:01.937Z,50.68
2018-10-07T14:11:30.422Z,51.72
2018-10-07T14:13:58.815Z,52.26
2018-10-07T14:16:27.322Z,52.78
2018-10-07T14:18:55.872Z,52.85
2018-10-07T14:21:24.294Z,53.09
2018-10-07T14:23:52.773Z,53.32
2018-10-07T14:26:21.209Z,53.25
2018-10-07T14:28:49.673Z,53.12
2018-10-07T14:31:18.113Z,52.65
2018-10-07T14:33:46.549Z,52.61
2018-10-07T14:36:14.956Z,52.88
2018-10-07T14:38:43.625Z,52.46
2018-10-07T14:41:12.030Z,53.11
2018-10-07T14:43:40.478Z,52.89
2018-10-07T14:46:08.894Z,52.81
2018-10-07T14:48:37.314Z,53.08
2018-10-07T14:51:05.778Z,53.31
2018-10-07T14:53:34.394Z,54.42
2018-10-07T14:56:02.921Z,54.05
2018-10-07T14:58:31.322Z,55.40
2018-10-07T15:00:59.844Z,55.01
2018-10-07T15:03:28.222Z,56.21
2018-10-07T15:05:56.733Z,56.37
2018-10-07T15:08:25.165Z,56.42
2018-10-07T15:10:53.603Z,56.50
2018-10-07T15:13:22.047Z,57.17
2018-10-07T15:15:50.522Z,57.71
2018-10-07T15:18:18.930Z,57.09
2018-10-07T15:20:47.389Z,57.31
2018-10-07T15:23:15.866Z,56.22
2018-10-07T15:25:44.405Z,56.02
2018-10-07T15:28:12.797Z,54.89
2018-10-07T15:30:41.229Z,55.13
2018-10-07T15:33:09.653Z,56.12
2018-10-07T15:35:38.129Z,54.69
2018-10-07T15:38:06.543Z,55.15
2018-10-07T15:40:35.030Z,55.57
2018-10-07T15:43:03.434Z,55.21
2018-10-07T15:45:31.973Z,55.35
2018-10-07T15:48:00.406Z,54.58
2018-10-07T15:50:28.810Z,55.61
2018-10-07T15:52:57.250Z,55.57
2018-10-07T15:55:25.658Z,56.35
2018-10-07T15:57:54.074Z,56.61
2018-10-07T16:00:22.514Z,56.85
2018-10-07T16:02:50.936Z,56.78
2018-10-07T16:05:19.365Z,57.79
2018-10-07T16:07:47.785Z,58.03
2018-10-07T16:10:16.197Z,58.26
2018-10-07T16:12:44.613Z,59.06
2018-10-07T16:15:13.090Z,59.72
2018-10-07T16:17:42.671Z,59.98
2018-10-07T16:20:11.086Z,60.29
2018-10-07T16:22:39.506Z,60.63
2018-10-07T16:25:07.966Z,60.77
2018-10-07T16:27:36.378Z,61.36
2018-10-07T16:30:05.190Z,61.62
2018-10-07T16:32:33.610Z,61.70
2018-10-07T16:35:02.031Z,61.70
2018-10-07T16:37:30.458Z,62.30
2018-10-07T16:39:58.850Z,62.33
2018-10-07T16:42:27.270Z,62.87
2018-10-07T16:44:55.667Z,62.77
2018-10-07T16:47:24.094Z,62.83
2018-10-07T16:49:52.506Z,62.98
2018-10-07T16:52:24.282Z,63.33
2018-10-07T16:54:52.745Z,63.29
2018-10-07T16:57:21.134Z,63.86
2018-10-07T16:59:49.569Z,63.88
2018-10-07T17:02:17.987Z,64.11
2018-10-07T17:04:46.421Z,64.25
2018-10-07T17:07:14.834Z,64.26
2018-10-07T17:09:43.254Z,64.22
2018-10-07T17:12:11.645Z,64.26
2018-10-07T17:14:40.112Z,64.41
2018-10-07T17:17:08.579Z,64.18
2018-10-07T17:19:37.010Z,64.37
2018-10-07T17:22:05.440Z,64.42
2018-10-07T17:24:33.902Z,64.29
2018-10-07T17:27:02.899Z,64.31
2018-10-07T17:29:33.338Z,64.45
2018-10-07T17:32:02.067Z,64.23
2018-10-07T17:34:30.516Z,64.58
2018-10-07T17:36:58.917Z,64.45
2018-10-07T17:39:27.349Z,64.75
2018-10-07T17:41:55.737Z,64.86
2018-10-07T17:44:24.211Z,64.86
2018-10-07T17:46:52.586Z,64.63
2018-10-07T17:49:21.041Z,64.71
2018-10-07T17:51:49.429Z,64.24
2018-10-07T17:54:17.827Z,64.21
2018-10-07T17:56:46.418Z,63.98
2018-10-07T17:59:14.842Z,63.60
2018-10-07T18:01:43.300Z,64.06
2018-10-07T18:04:11.705Z,63.62
2018-10-07T18:06:40.125Z,63.62
2018-10-07T18:09:09.281Z,63.90
2018-10-07T18:11:37.665Z,63.91
2018-10-07T18:14:06.265Z,64.21
2018-10-07T18:16:34.814Z,64.44
2018-10-07T18:19:03.682Z,64.81
2018-10-07T18:21:32.166Z,64.74
2018-10-07T18:24:00.574Z,65.13
2018-10-07T18:26:29.006Z,65.10
2018-10-07T18:28:57.410Z,65.26
2018-10-07T18:31:25.983Z,65.29
2018-10-07T18:33:54.374Z,65.28
2018-10-07T18:36:22.808Z,65.53
2018-10-07T18:38:51.833Z,65.68
2018-10-07T18:41:20.271Z,65.78
2018-10-07T18:43:48.674Z,65.77
2018-10-07T18:46:17.141Z,65.78
2018-10-07T18:48:45.563Z,66.02
2018-10-07T18:51:13.998Z,66.47
2018-10-07T18:53:43.281Z,66.35
2018-10-07T18:56:11.691Z,66.29
2018-10-07T18:58:40.126Z,66.55
2018-10-07T19:01:08.558Z,66.62
2018-10-07T19:03:37.014Z,66.48
2018-10-07T19:06:05.419Z,66.44
2018-10-07T19:08:33.871Z,67.18
2018-10-07T19:11:02.763Z,67.26
2018-10-07T19:13:31.195Z,67.25
2018-10-07T19:15:59.638Z,68.33
2018-10-07T19:18:28.256Z,67.91
2018-10-07T19:20:56.774Z,67.80
2018-10-07T19:23:25.427Z,67.67
2018-10-07T19:25:53.880Z,67.89
2018-10-07T19:28:22.325Z,67.88
2018-10-07T19:30:50.741Z,67.21
2018-10-07T19:33:19.182Z,68.11
2018-10-07T19:35:47.594Z,68.65
2018-10-07T19:38:16.079Z,68.74
2018-10-07T19:40:44.474Z,68.29
2018-10-07T19:43:12.884Z,68.31
2018-10-07T19:45:41.459Z,68.38
2018-10-07T19:48:09.966Z,68.45
2018-10-07T19:50:38.511Z,69.43
2018-10-07T19:53:07.057Z,68.65
2018-10-07T19:55:35.516Z,68.82
2018-10-07T19:58:04.923Z,68.46
2018-10-07T20:00:33.348Z,68.54
2018-10-07T20:03:01.734Z,68.60
2018-10-07T20:05:30.305Z,68.15
2018-10-07T20:07:58.719Z,68.09
2018-10-07T20:10:27.170Z,67.65
2018-10-07T20:12:55.909Z,67.84
2018-10-07T20:15:24.325Z,67.28
2018-10-07T20:17:52.777Z,67.53
2018-10-07T20:20:21.718Z,68.28
2018-10-07T20:22:50.615Z,68.00
2018-10-07T20:25:19.025Z,68.39
2018-10-07T20:27:48.857Z,68.16
2018-10-07T20:30:17.291Z,68.25
2018-10-07T20:32:45.686Z,68.33
2018-10-07T20:35:14.123Z,68.08
2018-10-07T20:37:42.593Z,68.19
2018-10-07T20:40:11.043Z,68.25
2018-10-07T20:42:39.461Z,67.76
2018-10-07T20:45:07.889Z,67.80
2018-10-07T20:47:36.937Z,68.65
2018-10-07T20:50:06.274Z,68.65
2018-10-07T20:52:34.785Z,68.00
2018-10-07T20:55:04.255Z,68.37
2018-10-07T20:57:34.557Z,68.35
2018-10-07T21:00:04.355Z,67.85
2018-10-07T21:02:33.606Z,68.01
2018-10-07T21:05:02.098Z,68.30
2018-10-07T21:07:30.570Z,68.00
2018-10-07T21:09:59.635Z,68.20
2018-10-07T21:12:28.081Z,68.08
2018-10-07T21:14:56.482Z,67.49
2018-10-07T21:17:24.945Z,67.40
2018-10-07T21:19:53.372Z,67.81
2018-10-07T21:22:21.870Z,68.13
2018-10-07T21:24:50.302Z,68.54
2018-10-07T21:27:18.794Z,67.80
2018-10-07T21:29:47.259Z,67.97
2018-10-07T21:32:15.669Z,68.73
2018-10-07T21:34:44.116Z,68.49
2018-10-07T21:37:12.520Z,68.91
2018-10-07T21:39:40.976Z,69.02
2018-10-07T21:42:09.373Z,68.85
2018-10-07T21:44:38.550Z,68.94
2018-10-07T21:47:06.981Z,68.77
2018-10-07T21:49:35.489Z,69.15
2018-10-07T21:52:03.854Z,68.73
2018-10-07T21:54:32.298Z,68.56
2018-10-07T21:57:00.716Z,67.93
2018-10-07T21:59:29.154Z,68.21
2018-10-07T22:01:57.563Z,68.46
2018-10-07T22:04:25.997Z,69.03
2018-10-07T22:06:54.456Z,69.16
2018-10-07T22:09:22.950Z,68.23
2018-10-07T22:11:51.363Z,68.31
2018-10-07T22:14:19.800Z,68.26
2018-10-07T22:16:48.237Z,68.90
2018-10-07T22:19:16.684Z,69.58
2018-10-07T22:21:45.078Z,69.26
2018-10-07T22:24:13.550Z,69.50
2018-10-07T22:26:41.986Z,69.76
2018-10-07T22:29:10.438Z,69.18
2018-10-07T22:31:38.911Z,69.04
2018-10-07T22:34:07.377Z,69.33
2018-10-07T22:36:35.823Z,69.12
2018-10-07T22:39:05.179Z,69.92
2018-10-07T22:41:33.610Z,69.26
2018-10-07T22:44:02.023Z,69.51
2018-10-07T22:46:30.490Z,69.78
2018-10-07T22:48:58.889Z,69.40
2018-10-07T22:51:27.374Z,70.17
2018-10-07T22:53:55.778Z,69.51
2018-10-07T22:56:24.293Z,70.40
2018-10-07T22:58:52.693Z,70.01
2018-10-07T23:01:21.150Z,69.90
2018-10-07T23:03:49.537Z,70.50
2018-10-07T23:06:17.970Z,69.35
2018-10-07T23:08:46.368Z,69.72
2018-10-07T23:11:14.822Z,70.69
2018-10-07T23:13:43.214Z,70.54
2018-10-07T23:16:11.705Z,70.19
2018-10-07T23:18:40.142Z,69.29
2018-10-07T23:21:08.570Z,69.89
2018-10-07T23:23:36.998Z,70.05
2018-10-07T23:26:05.422Z,69.92
2018-10-07T23:28:33.850Z,70.51
2018-10-07T23:31:02.978Z,69.31
2018-10-07T23:33:31.413Z,69.95
2018-10-07T23:35:59.826Z,70.02
2018-10-07T23:38:28.253Z,70.22
2018-10-07T23:40:57.717Z,70.33
2018-10-07T23:43:26.149Z,69.63
2018-10-07T23:45:54.769Z,69.62
2018-10-07T23:48:23.215Z,70.06
2018-10-07T23:50:51.642Z,70.13
2018-10-07T23:53:20.069Z,69.68
2018-10-07T23:55:48.475Z,69.67
2018-10-07T23:58:16.930Z,69.42
